createdAt,value
2019-01-29T00:01:21.859Z,5.13
2019-01-29T00:03:51.334Z,5.14
2019-01-29T00:06:20.861Z,5.17
2019-01-29T00:08:50.365Z,5.18
2019-01-29T00:11:19.815Z,5.21
2019-01-29T00:13:49.363Z,5.21
2019-01-29T00:16:18.924Z,5.21
2019-01-29T00:18:48.383Z,5.20
2019-01-29T00:21:17.871Z,5.21
2019-01-29T00:23:47.407Z,5.21
2019-01-29T00:26:16.896Z,5.23
2019-01-29T00:28:46.348Z,5.25
2019-01-29T00:31:15.912Z,5.27
2019-01-29T00:33:45.403Z,5.28
2019-01-29T00:36:14.930Z,5.31
2019-01-29T00:38:44.411Z,5.32
2019-01-29T00:41:13.934Z,5.32
2019-01-29T00:43:43.420Z,5.34
2019-01-29T00:46:12.986Z,5.34
2019-01-29T00:48:42.473Z,5.35
2019-01-29T00:51:11.962Z,5.37
2019-01-29T00:53:41.431Z,5.38
2019-01-29T00:56:10.936Z,5.29
2019-01-29T00:58:40.389Z,5.42
2019-01-29T01:01:10.090Z,5.44
2019-01-29T01:03:39.665Z,5.47
2019-01-29T01:06:09.267Z,5.48
2019-01-29T01:08:38.905Z,5.49
2019-01-29T01:11:08.377Z,5.50
2019-01-29T01:13:37.856Z,5.51
2019-01-29T01:16:07.450Z,5.51
2019-01-29T01:18:37.006Z,5.53
2019-01-29T01:21:06.607Z,5.54
2019-01-29T01:23:36.151Z,5.54
2019-01-29T01:26:05.673Z,5.53
2019-01-29T01:28:36.393Z,5.50
2019-01-29T01:31:05.944Z,5.47
2019-01-29T01:33:35.495Z,5.45
2019-01-29T01:36:05.115Z,5.45
2019-01-29T01:38:34.585Z,5.43
2019-01-29T01:41:04.137Z,5.44
2019-01-29T01:43:33.600Z,5.45
2019-01-29T01:46:03.090Z,5.45
2019-01-29T01:48:32.570Z,5.46
2019-01-29T01:51:02.038Z,5.48
2019-01-29T01:53:31.592Z,5.49
2019-01-29T01:56:01.051Z,5.49
2019-01-29T01:58:30.525Z,5.52
2019-01-29T02:01:00.063Z,5.51
2019-01-29T02:03:29.622Z,5.51
2019-01-29T02:05:59.173Z,5.53
2019-01-29T02:08:28.638Z,5.53
2019-01-29T02:10:58.119Z,5.53
2019-01-29T02:13:27.650Z,5.53
2019-01-29T02:15:57.202Z,5.55
2019-01-29T02:18:26.664Z,5.53
2019-01-29T02:20:56.442Z,5.53
2019-01-29T02:23:25.893Z,5.53
2019-01-29T02:25:55.391Z,5.52
2019-01-29T02:28:24.866Z,5.52
2019-01-29T02:30:54.369Z,5.50
2019-01-29T02:33:25.212Z,5.49
2019-01-29T02:35:54.760Z,5.48
2019-01-29T02:38:24.249Z,5.45
2019-01-29T02:40:53.712Z,5.45
2019-01-29T02:43:23.209Z,5.41
2019-01-29T02:45:52.701Z,5.39
2019-01-29T02:48:22.148Z,5.36
2019-01-29T02:50:51.605Z,5.33
2019-01-29T02:53:21.098Z,5.30
2019-01-29T02:55:50.620Z,5.28
2019-01-29T02:58:20.175Z,5.27
2019-01-29T03:00:49.664Z,5.26
2019-01-29T03:03:19.127Z,5.24
2019-01-29T03:05:48.609Z,5.24
2019-01-29T03:08:18.207Z,5.25
2019-01-29T03:10:47.763Z,5.23
2019-01-29T03:13:17.284Z,5.23
2019-01-29T03:15:46.848Z,5.22
2019-01-29T03:18:16.371Z,5.21
2019-01-29T03:20:45.835Z,5.20
2019-01-29T03:23:15.317Z,5.19
2019-01-29T03:25:44.793Z,5.15
2019-01-29T03:28:14.265Z,5.13
2019-01-29T03:30:43.762Z,5.09
2019-01-29T03:33:13.200Z,5.09
2019-01-29T03:35:42.816Z,5.09
2019-01-29T03:38:12.293Z,5.09
2019-01-29T03:40:41.869Z,5.08
2019-01-29T03:43:11.397Z,5.08
2019-01-29T03:45:40.953Z,5.07
2019-01-29T03:48:10.472Z,5.06
2019-01-29T03:50:40.046Z,5.08
2019-01-29T03:53:09.537Z,5.07
2019-01-29T03:55:39.019Z,5.06
2019-01-29T03:58:08.532Z,5.06
2019-01-29T04:00:38.035Z,5.06
2019-01-29T04:03:07.547Z,5.05
2019-01-29T04:05:37.120Z,5.06
2019-01-29T04:08:06.657Z,5.06
2019-01-29T04:10:36.200Z,5.06
2019-01-29T04:13:06.056Z,5.06
2019-01-29T04:15:35.551Z,5.09
2019-01-29T04:18:05.099Z,5.12
2019-01-29T04:20:34.643Z,5.13
2019-01-29T04:23:04.187Z,5.14
2019-01-29T04:25:33.640Z,5.14
2019-01-29T04:28:03.133Z,5.14
2019-01-29T04:30:32.595Z,5.15
2019-01-29T04:33:02.076Z,5.16
2019-01-29T04:35:31.536Z,5.19
2019-01-29T04:38:01.093Z,5.22
2019-01-29T04:40:30.612Z,5.25
2019-01-29T04:43:00.100Z,5.26
2019-01-29T04:45:29.628Z,5.28
2019-01-29T04:47:59.191Z,5.28
2019-01-29T04:50:28.718Z,5.28
2019-01-29T04:52:58.205Z,5.30
2019-01-29T04:55:27.656Z,5.32
2019-01-29T04:57:57.117Z,5.33
2019-01-29T05:00:27.643Z,5.34
2019-01-29T05:02:57.102Z,5.33
2019-01-29T05:05:26.862Z,5.33
2019-01-29T05:07:56.490Z,5.32
2019-01-29T05:10:26.082Z,5.31
2019-01-29T05:12:55.578Z,5.30
2019-01-29T05:15:25.200Z,5.30
2019-01-29T05:17:54.651Z,5.29
2019-01-29T05:20:24.345Z,5.28
2019-01-29T05:22:53.789Z,5.26
2019-01-29T05:25:23.359Z,5.26
2019-01-29T05:27:52.821Z,5.24
2019-01-29T05:30:24.621Z,5.23
2019-01-29T05:32:54.066Z,5.20
2019-01-29T05:35:23.736Z,5.20
2019-01-29T05:37:53.283Z,5.20
2019-01-29T05:40:23.997Z,5.18
2019-01-29T05:42:53.534Z,5.17
2019-01-29T05:45:23.806Z,5.15
2019-01-29T05:47:53.362Z,5.14
2019-01-29T05:50:22.890Z,5.12
2019-01-29T05:52:52.585Z,5.12
2019-01-29T05:55:22.203Z,5.10
2019-01-29T05:57:51.701Z,5.10
2019-01-29T06:00:29.064Z,5.11
2019-01-29T06:02:58.605Z,5.11
2019-01-29T06:05:28.398Z,5.12
2019-01-29T06:07:58.004Z,5.15
2019-01-29T06:10:27.588Z,5.16
2019-01-29T06:12:57.118Z,5.17
2019-01-29T06:15:27.056Z,5.18
2019-01-29T06:17:56.538Z,5.19
2019-01-29T06:20:31.823Z,5.21
2019-01-29T06:23:01.392Z,5.23
2019-01-29T06:25:30.855Z,5.26
2019-01-29T06:28:00.432Z,5.26
2019-01-29T06:30:30.145Z,5.29
2019-01-29T06:32:59.642Z,5.31
2019-01-29T06:35:29.175Z,5.33
2019-01-29T06:37:58.731Z,5.36
2019-01-29T06:40:29.544Z,5.37
2019-01-29T06:42:59.051Z,5.41
2019-01-29T06:45:28.583Z,5.43
2019-01-29T06:47:58.112Z,5.45
2019-01-29T06:50:29.133Z,5.47
2019-01-29T06:52:58.609Z,5.47
2019-01-29T06:55:28.217Z,5.49
2019-01-29T06:57:57.679Z,5.52
2019-01-29T07:00:32.592Z,5.52
2019-01-29T07:03:02.797Z,5.54
2019-01-29T07:05:32.322Z,5.56
2019-01-29T07:08:01.883Z,5.58
2019-01-29T07:10:31.439Z,5.58
2019-01-29T07:13:00.968Z,5.60
2019-01-29T07:15:47.865Z,5.61
2019-01-29T07:18:21.709Z,5.62
2019-01-29T07:20:51.338Z,5.64
2019-01-29T07:23:20.788Z,5.64
2019-01-29T07:25:50.357Z,5.66
2019-01-29T07:28:19.919Z,5.68
2019-01-29T07:30:49.442Z,5.69
2019-01-29T07:33:19.228Z,5.71
2019-01-29T07:35:48.683Z,5.72
2019-01-29T07:38:18.145Z,5.73
2019-01-29T07:40:47.653Z,5.74
2019-01-29T07:43:17.187Z,5.76
2019-01-29T07:45:46.726Z,5.77
2019-01-29T07:48:16.288Z,5.78
2019-01-29T07:50:45.890Z,5.78
2019-01-29T07:53:15.414Z,5.80
2019-01-29T07:55:44.919Z,5.79
2019-01-29T07:58:14.379Z,5.81
2019-01-29T08:00:43.909Z,5.81
2019-01-29T08:03:13.397Z,5.83
2019-01-29T08:05:42.972Z,5.84
2019-01-29T08:08:12.507Z,5.87
2019-01-29T08:10:41.995Z,5.88
2019-01-29T08:13:11.654Z,5.90
2019-01-29T08:15:41.279Z,5.93
2019-01-29T08:18:10.991Z,5.94
2019-01-29T08:20:40.478Z,5.95
2019-01-29T08:23:10.001Z,5.98
2019-01-29T08:25:47.358Z,6.00
2019-01-29T08:28:10.779Z,6.03
2019-01-29T08:30:40.385Z,6.06
2019-01-29T08:33:09.949Z,6.09
2019-01-29T08:35:41.463Z,6.12
2019-01-29T08:38:10.697Z,6.16
2019-01-29T08:40:40.258Z,6.18
2019-01-29T08:43:11.427Z,6.20
2019-01-29T08:45:40.907Z,6.21
2019-01-29T08:48:10.383Z,6.24
2019-01-29T08:50:39.914Z,6.27
2019-01-29T08:53:09.412Z,6.30
2019-01-29T08:55:39.027Z,6.33
2019-01-29T08:58:08.494Z,6.37
2019-01-29T09:00:38.072Z,6.40
2019-01-29T09:03:07.658Z,6.43
2019-01-29T09:05:37.222Z,6.46
2019-01-29T09:08:07.612Z,6.49
2019-01-29T09:10:37.241Z,6.52
2019-01-29T09:13:06.833Z,6.54
2019-01-29T09:15:36.326Z,6.54
2019-01-29T09:18:06.003Z,6.55
2019-01-29T09:20:35.494Z,6.55
2019-01-29T09:23:05.092Z,6.54
2019-01-29T09:25:34.716Z,6.55
2019-01-29T09:28:04.276Z,6.54
2019-01-29T09:30:33.879Z,6.55
2019-01-29T09:33:03.488Z,6.55
2019-01-29T09:35:32.953Z,6.58
2019-01-29T09:38:02.436Z,6.60
2019-01-29T09:40:32.042Z,6.63
2019-01-29T09:43:01.615Z,6.66
2019-01-29T09:45:31.243Z,6.69
2019-01-29T09:48:00.735Z,6.72
2019-01-29T09:50:30.377Z,6.75
2019-01-29T09:52:59.828Z,6.80
2019-01-29T09:55:30.094Z,6.82
2019-01-29T09:57:59.702Z,6.86
2019-01-29T10:00:35.461Z,6.90
2019-01-29T10:03:05.531Z,6.94
2019-01-29T10:05:35.099Z,6.98
2019-01-29T10:08:04.873Z,7.02
2019-01-29T10:10:34.363Z,7.09
2019-01-29T10:13:04.080Z,7.14
2019-01-29T10:15:36.589Z,7.18
2019-01-29T10:18:06.386Z,7.23
2019-01-29T10:20:36.202Z,7.26
2019-01-29T10:23:06.097Z,7.31
2019-01-29T10:25:37.756Z,7.37
2019-01-29T10:28:06.903Z,7.44
2019-01-29T10:30:36.429Z,7.51
2019-01-29T10:33:06.029Z,7.59
2019-01-29T10:35:35.496Z,7.68
2019-01-29T10:38:05.098Z,7.78
2019-01-29T10:40:34.663Z,7.86
2019-01-29T10:43:04.355Z,7.97
2019-01-29T10:45:34.002Z,8.09
2019-01-29T10:48:03.624Z,8.21
2019-01-29T10:50:33.429Z,8.36
2019-01-29T10:53:03.046Z,8.50
2019-01-29T10:55:32.614Z,8.63
2019-01-29T10:58:02.213Z,8.72
2019-01-29T11:00:38.436Z,8.80
2019-01-29T11:03:08.907Z,8.84
2019-01-29T11:05:38.770Z,8.90
2019-01-29T11:08:08.472Z,8.94
2019-01-29T11:10:38.282Z,8.97
2019-01-29T11:13:07.896Z,8.96
2019-01-29T11:15:42.032Z,8.93
2019-01-29T11:18:13.640Z,8.90
2019-01-29T11:20:43.389Z,8.84
2019-01-29T11:23:12.955Z,8.77
2019-01-29T11:25:42.623Z,8.72
2019-01-29T11:28:12.352Z,8.66
2019-01-29T11:30:42.094Z,8.60
2019-01-29T11:33:11.696Z,8.56
2019-01-29T11:35:41.264Z,8.50
2019-01-29T11:38:10.967Z,8.43
2019-01-29T11:40:40.669Z,8.36
2019-01-29T11:43:10.297Z,8.27
2019-01-29T11:45:49.233Z,8.21
2019-01-29T11:48:18.765Z,8.16
2019-01-29T11:50:48.375Z,8.15
2019-01-29T11:53:17.873Z,8.15
2019-01-29T11:55:47.315Z,8.17
2019-01-29T11:58:16.809Z,8.18
2019-01-29T12:00:50.521Z,8.20
2019-01-29T12:03:24.204Z,8.19
2019-01-29T12:05:53.735Z,8.17
2019-01-29T12:08:23.240Z,8.15
2019-01-29T12:10:52.828Z,8.13
2019-01-29T12:13:22.277Z,8.12
2019-01-29T12:15:51.837Z,8.15
2019-01-29T12:18:21.590Z,8.19
2019-01-29T12:20:51.235Z,8.22
2019-01-29T12:23:20.783Z,8.28
2019-01-29T12:25:50.369Z,8.32
2019-01-29T12:28:19.909Z,8.37
2019-01-29T12:30:49.470Z,8.43
2019-01-29T12:33:19.217Z,8.48
2019-01-29T12:35:48.681Z,8.53
2019-01-29T12:38:18.169Z,8.54
2019-01-29T12:40:47.766Z,8.55
2019-01-29T12:43:17.229Z,8.56
2019-01-29T12:45:48.191Z,8.56
2019-01-29T12:48:18.088Z,8.55
2019-01-29T12:50:49.261Z,8.53
2019-01-29T12:53:19.861Z,8.53
2019-01-29T12:55:49.352Z,8.52
2019-01-29T12:58:18.929Z,8.50
2019-01-29T13:00:50.022Z,8.49
2019-01-29T13:03:19.504Z,8.47
2019-01-29T13:05:48.984Z,8.44
2019-01-29T13:08:18.699Z,8.40
2019-01-29T13:10:48.364Z,8.39
2019-01-29T13:13:17.992Z,8.42
2019-01-29T13:15:47.619Z,8.47
2019-01-29T13:18:17.228Z,8.53
2019-01-29T13:20:46.699Z,8.58
2019-01-29T13:23:16.283Z,8.60
2019-01-29T13:25:45.876Z,8.60
2019-01-29T13:28:15.537Z,8.60
2019-01-29T13:30:45.177Z,8.60
2019-01-29T13:33:14.803Z,8.57
2019-01-29T13:35:44.715Z,8.54
2019-01-29T13:38:14.347Z,8.47
2019-01-29T13:40:43.998Z,8.39
2019-01-29T13:43:13.601Z,8.32
2019-01-29T13:45:43.227Z,8.27
2019-01-29T13:48:12.788Z,8.26
2019-01-29T13:50:49.402Z,8.24
2019-01-29T13:53:18.935Z,8.23
2019-01-29T13:55:48.409Z,8.20
2019-01-29T13:58:18.013Z,8.18
2019-01-29T14:00:47.670Z,8.13
2019-01-29T14:03:18.620Z,8.10
2019-01-29T14:05:48.392Z,8.07
2019-01-29T14:08:17.951Z,8.03
2019-01-29T14:10:47.480Z,8.00
2019-01-29T14:13:16.971Z,7.96
2019-01-29T14:15:50.574Z,7.92
2019-01-29T14:18:20.400Z,7.89
2019-01-29T14:20:49.920Z,7.85
2019-01-29T14:23:19.597Z,7.82
2019-01-29T14:25:49.147Z,7.79
2019-01-29T14:28:18.730Z,7.75
2019-01-29T14:30:48.414Z,7.72
2019-01-29T14:33:18.081Z,7.68
2019-01-29T14:35:47.691Z,7.65
2019-01-29T14:38:30.533Z,7.63
2019-01-29T14:41:00.813Z,7.61
2019-01-29T14:43:40.472Z,7.60
2019-01-29T14:46:10.055Z,7.60
2019-01-29T14:48:39.526Z,7.58
2019-01-29T14:51:09.264Z,7.57
2019-01-29T14:53:38.875Z,7.56
2019-01-29T14:56:08.337Z,7.53
2019-01-29T14:58:37.828Z,7.49
2019-01-29T15:01:07.715Z,7.43
2019-01-29T15:03:37.231Z,7.37
2019-01-29T15:06:06.844Z,7.31
2019-01-29T15:08:36.487Z,7.25
2019-01-29T15:11:06.177Z,7.19
2019-01-29T15:13:35.657Z,7.10
2019-01-29T15:16:07.172Z,7.03
2019-01-29T15:18:46.802Z,6.94
2019-01-29T15:21:16.281Z,6.87
2019-01-29T15:23:45.753Z,6.81
2019-01-29T15:26:15.241Z,6.74
2019-01-29T15:28:44.691Z,6.69
2019-01-29T15:31:14.260Z,6.62
2019-01-29T15:33:46.863Z,6.57
2019-01-29T15:36:16.573Z,6.51
2019-01-29T15:38:46.059Z,6.45
2019-01-29T15:41:15.654Z,6.40
2019-01-29T15:43:45.228Z,6.35
2019-01-29T15:46:14.824Z,6.29
2019-01-29T15:48:44.310Z,6.23
2019-01-29T15:51:13.814Z,6.18
2019-01-29T15:53:43.451Z,6.11
2019-01-29T15:56:12.989Z,6.05
2019-01-29T15:58:42.450Z,5.99
2019-01-29T16:01:11.944Z,5.92
2019-01-29T16:03:41.585Z,5.86
2019-01-29T16:06:11.197Z,5.80
2019-01-29T16:08:40.773Z,5.74
2019-01-29T16:11:10.485Z,5.70
2019-01-29T16:13:39.954Z,5.64
2019-01-29T16:16:09.532Z,5.58
2019-01-29T16:18:39.063Z,5.50
2019-01-29T16:21:08.719Z,5.44
2019-01-29T16:23:38.185Z,5.37
2019-01-29T16:26:07.811Z,5.32
2019-01-29T16:28:37.386Z,5.26
2019-01-29T16:31:07.045Z,5.20
2019-01-29T16:33:36.541Z,5.11
2019-01-29T16:36:06.101Z,5.05
2019-01-29T16:38:35.561Z,4.98
2019-01-29T16:41:05.316Z,4.90
2019-01-29T16:43:34.791Z,4.82
2019-01-29T16:46:04.362Z,4.74
2019-01-29T16:48:33.822Z,4.66
2019-01-29T16:51:03.364Z,4.59
2019-01-29T16:53:32.847Z,4.52
2019-01-29T16:56:02.444Z,4.43
2019-01-29T16:58:31.884Z,4.35
2019-01-29T17:01:01.447Z,4.27
2019-01-29T17:03:31.139Z,4.18
2019-01-29T17:06:00.627Z,4.13
2019-01-29T17:08:30.221Z,4.05
2019-01-29T17:10:59.770Z,3.98
2019-01-29T17:13:29.257Z,3.90
2019-01-29T17:15:58.815Z,3.83
2019-01-29T17:18:28.314Z,3.77
2019-01-29T17:20:57.781Z,3.69
2019-01-29T17:23:27.347Z,3.64
2019-01-29T17:25:56.896Z,3.57
2019-01-29T17:28:26.465Z,3.50
2019-01-29T17:30:55.991Z,3.45
2019-01-29T17:33:25.511Z,3.39
2019-01-29T17:35:55.043Z,3.36
2019-01-29T17:38:24.623Z,3.32
2019-01-29T17:40:54.132Z,3.31
2019-01-29T17:43:23.702Z,3.29
2019-01-29T17:45:53.533Z,3.28
2019-01-29T17:48:23.081Z,3.27
2019-01-29T17:50:52.812Z,3.25
2019-01-29T17:53:22.340Z,3.21
2019-01-29T17:55:51.856Z,3.19
2019-01-29T17:58:21.414Z,3.15
2019-01-29T18:00:52.643Z,3.10
2019-01-29T18:03:22.149Z,3.06
2019-01-29T18:05:51.698Z,3.02
2019-01-29T18:08:21.286Z,2.98
2019-01-29T18:10:50.782Z,2.97
2019-01-29T18:13:20.330Z,2.93
2019-01-29T18:15:49.925Z,2.90
2019-01-29T18:18:21.100Z,2.88
2019-01-29T18:20:50.675Z,2.79
2019-01-29T18:23:20.221Z,2.85
2019-01-29T18:25:49.699Z,2.85
2019-01-29T18:28:19.361Z,2.85
2019-01-29T18:30:48.924Z,2.89
2019-01-29T18:33:18.482Z,2.89
2019-01-29T18:35:48.049Z,2.90
2019-01-29T18:38:17.588Z,2.91
2019-01-29T18:40:51.341Z,2.92
2019-01-29T18:43:20.845Z,2.94
2019-01-29T18:45:50.378Z,2.95
2019-01-29T18:48:19.917Z,2.94
2019-01-29T18:50:49.482Z,2.94
2019-01-29T18:53:19.032Z,2.96
2019-01-29T18:55:48.541Z,2.97
2019-01-29T18:58:18.073Z,2.97
2019-01-29T19:00:54.357Z,2.99
2019-01-29T19:03:18.877Z,3.01
2019-01-29T19:05:48.483Z,3.03
2019-01-29T19:08:18.004Z,3.05
2019-01-29T19:10:47.515Z,3.09
2019-01-29T19:13:17.235Z,3.12
2019-01-29T19:15:46.711Z,3.14
2019-01-29T19:18:16.348Z,3.17
2019-01-29T19:20:45.829Z,3.19
2019-01-29T19:23:15.330Z,3.22
2019-01-29T19:25:44.922Z,3.26
2019-01-29T19:28:21.723Z,3.29
2019-01-29T19:30:45.784Z,3.31
2019-01-29T19:33:15.286Z,3.35
2019-01-29T19:35:44.826Z,3.38
2019-01-29T19:38:16.541Z,3.40
2019-01-29T19:40:45.743Z,3.42
2019-01-29T19:43:15.260Z,3.44
2019-01-29T19:45:44.821Z,3.47
2019-01-29T19:48:14.376Z,3.50
2019-01-29T19:50:43.985Z,3.52
2019-01-29T19:53:13.658Z,3.54
2019-01-29T19:55:43.249Z,3.57
2019-01-29T19:58:12.721Z,3.59
2019-01-29T20:00:42.923Z,3.61
2019-01-29T20:03:12.710Z,3.64
2019-01-29T20:05:42.275Z,3.65
2019-01-29T20:08:11.845Z,3.66
2019-01-29T20:10:41.430Z,3.68
2019-01-29T20:13:10.971Z,3.71
2019-01-29T20:15:40.502Z,3.73
2019-01-29T20:18:10.073Z,3.75
2019-01-29T20:20:41.672Z,3.77
2019-01-29T20:23:11.211Z,3.79
2019-01-29T20:25:40.897Z,3.80
2019-01-29T20:28:10.577Z,3.81
2019-01-29T20:30:41.002Z,3.81
2019-01-29T20:33:10.539Z,3.82
2019-01-29T20:35:40.226Z,3.83
2019-01-29T20:38:09.839Z,3.85
2019-01-29T20:40:39.447Z,3.86
2019-01-29T20:43:08.995Z,3.89
2019-01-29T20:45:38.622Z,3.90
2019-01-29T20:48:08.245Z,3.91
2019-01-29T20:50:38.343Z,3.92
2019-01-29T20:53:07.978Z,3.94
2019-01-29T20:55:37.570Z,3.94
2019-01-29T20:58:07.383Z,3.95
2019-01-29T21:00:40.821Z,3.95
2019-01-29T21:03:10.429Z,3.96
2019-01-29T21:05:40.045Z,3.95
2019-01-29T21:08:09.693Z,3.96
2019-01-29T21:10:39.266Z,3.96
2019-01-29T21:13:10.836Z,3.97
2019-01-29T21:15:40.319Z,3.96
2019-01-29T21:18:09.933Z,3.96
2019-01-29T21:20:39.598Z,3.95
2019-01-29T21:23:09.159Z,3.94
2019-01-29T21:25:38.816Z,3.95
2019-01-29T21:28:08.442Z,3.94
2019-01-29T21:30:40.808Z,3.92
2019-01-29T21:33:10.305Z,3.92
2019-01-29T21:35:39.915Z,3.91
2019-01-29T21:38:09.564Z,3.90
2019-01-29T21:40:39.064Z,3.89
2019-01-29T21:43:08.640Z,3.88
2019-01-29T21:45:38.299Z,3.87
2019-01-29T21:48:07.889Z,3.85
2019-01-29T21:50:37.652Z,3.85
2019-01-29T21:53:07.333Z,3.85
2019-01-29T21:55:36.830Z,3.84
2019-01-29T21:58:06.822Z,3.85
2019-01-29T22:00:40.587Z,3.84
2019-01-29T22:03:10.118Z,3.84
2019-01-29T22:05:39.779Z,3.83
2019-01-29T22:08:09.579Z,3.83
2019-01-29T22:10:39.322Z,3.83
2019-01-29T22:13:09.370Z,3.83
2019-01-29T22:15:38.859Z,3.84
2019-01-29T22:18:08.653Z,3.85
2019-01-29T22:20:38.218Z,3.86
2019-01-29T22:23:07.697Z,3.85
2019-01-29T22:25:37.270Z,3.86
2019-01-29T22:28:07.489Z,3.86
2019-01-29T22:30:40.619Z,3.86
2019-01-29T22:33:10.120Z,3.87
2019-01-29T22:35:39.726Z,3.87
2019-01-29T22:38:09.384Z,3.87
2019-01-29T22:40:39.029Z,3.88
2019-01-29T22:43:08.563Z,3.88
2019-01-29T22:45:38.094Z,3.90
2019-01-29T22:48:07.907Z,3.90
2019-01-29T22:50:41.741Z,3.90
2019-01-29T22:53:11.376Z,3.90
2019-01-29T22:55:40.927Z,3.89
2019-01-29T22:58:10.846Z,3.89
2019-01-29T23:00:52.374Z,3.88
2019-01-29T23:03:26.266Z,3.85
2019-01-29T23:06:17.948Z,3.83
2019-01-29T23:08:47.507Z,3.83
2019-01-29T23:11:17.208Z,3.81
2019-01-29T23:13:46.768Z,3.81
2019-01-29T23:16:16.270Z,3.82
2019-01-29T23:18:45.780Z,3.83
2019-01-29T23:21:15.433Z,3.84
2019-01-29T23:23:44.918Z,3.84
2019-01-29T23:26:14.410Z,3.83
2019-01-29T23:28:43.892Z,3.81
2019-01-29T23:31:13.419Z,3.79
2019-01-29T23:33:45.378Z,3.76
2019-01-29T23:36:14.105Z,3.73
2019-01-29T23:38:43.602Z,3.73
2019-01-29T23:41:13.061Z,3.71
2019-01-29T23:43:42.517Z,3.70
2019-01-29T23:46:12.089Z,3.70
2019-01-29T23:48:41.585Z,3.69
2019-01-29T23:51:11.109Z,3.69
2019-01-29T23:53:40.578Z,3.68
2019-01-29T23:56:10.081Z,3.67
2019-01-29T23:58:39.545Z,3.67
